createdAt,value
2019-02-18T00:02:11.678Z,6.12
2019-02-18T00:04:41.729Z,4.75
2019-02-18T00:07:14.406Z,5.20
2019-02-18T00:09:42.746Z,4.97
2019-02-18T00:12:11.836Z,4.67
2019-02-18T00:14:41.892Z,5.62
2019-02-18T00:17:12.120Z,5.83
2019-02-18T00:19:41.954Z,6.42
2019-02-18T00:22:12.115Z,5.65
2019-02-18T00:25:08.791Z,4.25
2019-02-18T00:28:53.393Z,3.40
2019-02-18T00:31:16.822Z,4.45
2019-02-18T00:37:31.760Z,4.97
2019-02-18T00:40:09.206Z,4.87
2019-02-18T00:42:48.497Z,4.00
2019-02-18T00:45:14.054Z,4.08
2019-02-18T00:47:56.355Z,3.65
2019-02-18T00:50:27.567Z,5.00
2019-02-18T00:52:57.709Z,5.03
2019-02-18T00:55:31.373Z,6.50
2019-02-18T00:58:01.486Z,4.22
2019-02-18T01:00:31.088Z,4.20
2019-02-18T01:03:20.307Z,4.03
2019-02-18T01:05:50.776Z,4.83
2019-02-18T01:08:45.144Z,5.95
2019-02-18T01:11:15.675Z,4.70
2019-02-18T01:14:12.905Z,4.15
2019-02-18T01:16:43.343Z,6.55
2019-02-18T01:19:17.289Z,4.97
2019-02-18T01:21:47.967Z,5.00
2019-02-18T01:24:17.796Z,6.05
2019-02-18T01:26:56.189Z,5.40
2019-02-18T01:29:31.698Z,5.37
2019-02-18T01:32:01.153Z,6.40
2019-02-18T01:34:30.631Z,4.85
2019-02-18T01:36:59.741Z,4.58
2019-02-18T01:39:29.913Z,7.08
2019-02-18T01:42:00.390Z,5.37
2019-02-18T01:44:29.900Z,6.92
2019-02-18T01:47:00.124Z,5.55
2019-02-18T01:49:29.828Z,4.60
2019-02-18T01:52:00.027Z,3.65
2019-02-18T01:54:30.178Z,5.65
2019-02-18T01:57:00.602Z,4.83
2019-02-18T01:59:32.296Z,6.37
2019-02-18T02:02:01.856Z,7.83
2019-02-18T02:04:31.573Z,6.45
2019-02-18T02:07:01.648Z,6.33
2019-02-18T02:09:31.796Z,5.90
2019-02-18T02:12:01.641Z,8.28
2019-02-18T02:14:39.598Z,7.60
2019-02-18T02:17:26.254Z,7.42
2019-02-18T02:19:57.315Z,7.55
2019-02-18T02:22:27.831Z,7.45
2019-02-18T02:24:57.303Z,7.97
2019-02-18T02:27:28.316Z,8.78
2019-02-18T02:29:57.793Z,7.78
2019-02-18T02:32:29.352Z,7.95
2019-02-18T02:34:59.480Z,7.47
2019-02-18T02:37:29.708Z,9.20
2019-02-18T02:46:16.925Z,6.28
2019-02-18T02:48:47.191Z,7.58
2019-02-18T02:51:40.207Z,7.12
2019-02-18T02:54:09.703Z,6.70
2019-02-18T02:56:41.331Z,6.87
2019-02-18T02:59:11.591Z,6.22
2019-02-18T03:02:00.426Z,6.47
2019-02-18T03:04:30.987Z,6.40
2019-02-18T03:07:00.780Z,6.37
2019-02-18T03:09:30.950Z,8.55
2019-02-18T03:12:03.607Z,4.58
2019-02-18T03:14:33.994Z,6.10
2019-02-18T03:17:03.415Z,6.15
2019-02-18T03:19:33.572Z,7.17
2019-02-18T03:22:03.747Z,7.75
2019-02-18T03:24:38.388Z,8.93
2019-02-18T03:27:17.153Z,6.80
2019-02-18T03:30:24.085Z,6.15
2019-02-18T03:32:56.679Z,6.87
2019-02-18T03:35:46.037Z,5.97
2019-02-18T03:38:31.271Z,7.45
2019-02-18T03:41:02.863Z,6.62
2019-02-18T03:43:25.688Z,8.28
2019-02-18T03:45:56.224Z,7.30
2019-02-18T03:51:14.051Z,6.30
2019-02-18T03:53:44.168Z,7.42
2019-02-18T03:57:25.189Z,6.97
2019-02-18T04:00:19.673Z,7.20
2019-02-18T04:03:11.538Z,8.70
2019-02-18T04:05:46.232Z,10.82
2019-02-18T04:08:15.949Z,8.98
2019-02-18T04:10:47.026Z,9.05
2019-02-18T04:13:41.704Z,8.33
2019-02-18T04:23:43.912Z,7.90
2019-02-18T04:26:20.585Z,7.03
2019-02-18T04:28:51.910Z,6.80
2019-02-18T04:34:34.501Z,6.67
2019-02-18T04:37:07.674Z,5.58
2019-02-18T04:46:43.421Z,6.97
2019-02-18T04:53:15.301Z,7.20
2019-02-18T04:55:46.857Z,10.58
2019-02-18T04:58:46.236Z,13.00
2019-02-18T05:01:21.718Z,8.55
2019-02-18T05:03:51.628Z,8.20
2019-02-18T05:06:25.607Z,9.83
2019-02-18T05:09:05.051Z,10.10
2019-02-18T05:15:01.153Z,8.63
2019-02-18T05:17:30.966Z,9.23
2019-02-18T05:20:01.535Z,7.80
2019-02-18T05:22:33.799Z,6.58
2019-02-18T05:26:09.074Z,9.13
2019-02-18T05:28:43.874Z,9.68
2019-02-18T05:31:14.249Z,8.38
2019-02-18T05:33:58.713Z,9.45
2019-02-18T05:43:36.731Z,8.13
2019-02-18T05:47:05.787Z,12.58
2019-02-18T05:53:13.940Z,11.33
2019-02-18T06:06:52.756Z,10.32
2019-02-18T06:09:30.189Z,11.10
2019-02-18T06:11:58.960Z,13.15
2019-02-18T06:14:29.099Z,9.73
2019-02-18T06:17:17.997Z,8.53
2019-02-18T06:19:47.609Z,9.33
2019-02-18T06:22:17.794Z,10.28
2019-02-18T06:24:48.284Z,5.80
2019-02-18T06:27:18.719Z,5.87
2019-02-18T06:29:48.449Z,5.25
2019-02-18T06:32:18.079Z,4.55
2019-02-18T06:34:47.934Z,6.00
2019-02-18T06:37:17.659Z,8.78
2019-02-18T06:39:47.396Z,7.80
2019-02-18T06:42:17.285Z,8.98
2019-02-18T06:45:00.743Z,6.97
2019-02-18T06:47:30.970Z,8.10
2019-02-18T06:50:00.828Z,6.50
2019-02-18T06:52:32.615Z,6.72
2019-02-18T06:55:02.465Z,8.38
2019-02-18T06:57:44.116Z,7.72
2019-02-18T07:00:34.204Z,9.18
2019-02-18T07:03:12.616Z,7.75
2019-02-18T07:05:56.465Z,10.72
2019-02-18T07:08:50.640Z,7.65
2019-02-18T07:11:31.215Z,9.43
2019-02-18T07:14:01.023Z,8.63
2019-02-18T07:16:30.426Z,10.53
2019-02-18T07:19:01.897Z,8.70
2019-02-18T07:21:33.115Z,9.05
2019-02-18T07:24:03.415Z,12.53
2019-02-18T07:27:07.723Z,12.23
2019-02-18T07:29:37.330Z,15.00
2019-02-18T07:32:07.511Z,12.90
2019-02-18T07:34:37.335Z,12.07
2019-02-18T07:37:09.567Z,11.38
2019-02-18T07:39:41.091Z,10.90
2019-02-18T07:42:14.076Z,12.68
2019-02-18T07:44:44.226Z,11.35
2019-02-18T07:51:03.462Z,8.58
2019-02-18T07:53:52.372Z,9.95
2019-02-18T07:57:27.063Z,9.48
2019-02-18T08:00:01.215Z,7.65
2019-02-18T08:03:48.685Z,8.60
2019-02-18T08:05:51.653Z,9.00
2019-02-18T08:11:49.630Z,9.53
2019-02-18T08:15:29.517Z,49.73
2019-02-18T08:19:15.641Z,42.70
2019-02-18T08:22:31.909Z,28.55
2019-02-18T08:29:20.592Z,22.35
2019-02-18T08:31:59.082Z,19.82
2019-02-18T08:34:29.523Z,16.73
2019-02-18T08:37:00.439Z,15.48
2019-02-18T08:39:30.326Z,16.10
2019-02-18T08:42:39.053Z,16.97
2019-02-18T08:48:17.674Z,15.63
2019-02-18T08:50:52.835Z,12.78
2019-02-18T08:53:25.971Z,14.23
2019-02-18T08:56:29.318Z,13.48
2019-02-18T08:58:56.134Z,12.65
2019-02-18T09:02:37.453Z,15.45
2019-02-18T09:05:22.097Z,11.75
2019-02-18T09:08:11.917Z,28.62
2019-02-18T09:10:42.441Z,15.43
2019-02-18T09:13:14.247Z,14.78
2019-02-18T09:15:44.141Z,15.95
2019-02-18T09:18:14.275Z,12.40
2019-02-18T09:20:44.330Z,11.88
2019-02-18T09:23:33.139Z,15.88
2019-02-18T09:26:03.967Z,18.00
2019-02-18T09:28:36.720Z,17.12
2019-02-18T09:31:06.632Z,16.37
2019-02-18T09:33:37.123Z,28.12
2019-02-18T09:36:07.224Z,22.87
2019-02-18T09:38:37.381Z,35.35
2019-02-18T09:41:07.609Z,33.83
2019-02-18T09:43:37.729Z,46.48
2019-02-18T09:46:08.026Z,35.88
2019-02-18T09:48:37.814Z,19.35
2019-02-18T09:51:08.013Z,14.75
2019-02-18T09:53:38.470Z,28.35
2019-02-18T09:56:08.171Z,108.50
2019-02-18T09:58:37.660Z,16.90
2019-02-18T10:01:07.840Z,58.95
2019-02-18T10:03:37.958Z,46.88
2019-02-18T10:06:07.824Z,14.58
2019-02-18T10:08:37.694Z,17.12
2019-02-18T10:11:07.872Z,30.27
2019-02-18T10:13:37.686Z,72.75
2019-02-18T10:16:07.949Z,123.87
2019-02-18T10:18:38.336Z,43.13
2019-02-18T10:21:20.435Z,17.80
2019-02-18T10:23:50.646Z,11.18
2019-02-18T10:26:20.656Z,25.95
2019-02-18T10:28:50.953Z,55.25
2019-02-18T10:31:20.797Z,21.00
2019-02-18T10:33:51.138Z,17.60
2019-02-18T10:36:21.058Z,16.57
2019-02-18T10:38:51.235Z,13.95
2019-02-18T10:41:21.458Z,13.03
2019-02-18T10:44:00.615Z,14.95
2019-02-18T10:46:34.583Z,17.17
2019-02-18T10:49:04.440Z,13.13
2019-02-18T10:51:34.683Z,28.20
2019-02-18T10:54:04.257Z,16.82
2019-02-18T10:56:37.092Z,13.25
2019-02-18T10:59:26.290Z,12.98
2019-02-18T11:01:56.635Z,10.10
2019-02-18T11:04:26.936Z,9.73
2019-02-18T11:06:56.767Z,10.80
2019-02-18T11:09:36.707Z,13.00
2019-02-18T11:12:08.246Z,10.82
2019-02-18T11:14:47.163Z,14.93
2019-02-18T11:17:47.954Z,11.12
2019-02-18T11:20:23.382Z,17.07
2019-02-18T11:22:55.031Z,17.98
2019-02-18T11:25:53.856Z,14.30
2019-02-18T11:28:24.517Z,18.27
2019-02-18T11:30:54.329Z,13.15
2019-02-18T11:33:24.472Z,14.63
2019-02-18T11:35:54.940Z,14.10
2019-02-18T11:38:25.551Z,10.50
2019-02-18T11:40:55.075Z,15.13
2019-02-18T11:43:25.378Z,12.65
2019-02-18T11:45:55.618Z,13.88
2019-02-18T11:48:25.709Z,13.28
2019-02-18T11:50:55.924Z,14.23
2019-02-18T11:53:25.847Z,15.93
2019-02-18T11:55:55.630Z,14.07
2019-02-18T11:58:26.223Z,13.60
2019-02-18T12:00:56.710Z,15.58
2019-02-18T12:03:27.272Z,12.68
2019-02-18T12:05:57.194Z,14.38
2019-02-18T12:08:26.681Z,13.45
2019-02-18T12:10:56.796Z,11.43
2019-02-18T12:13:26.580Z,14.28
2019-02-18T12:15:56.682Z,13.18
2019-02-18T12:18:27.223Z,12.30
2019-02-18T12:20:57.213Z,17.20
2019-02-18T12:23:27.466Z,14.47
2019-02-18T12:25:58.136Z,15.08
2019-02-18T12:28:28.404Z,13.72
2019-02-18T12:30:58.577Z,16.17
2019-02-18T12:33:29.112Z,15.93
2019-02-18T12:35:59.010Z,13.55
2019-02-18T12:38:28.847Z,13.70
2019-02-18T12:40:58.718Z,13.75
2019-02-18T12:43:29.376Z,16.23
2019-02-18T12:45:59.288Z,16.30
2019-02-18T12:48:29.605Z,17.12
2019-02-18T12:50:59.443Z,12.90
2019-02-18T12:53:29.120Z,14.90
2019-02-18T12:55:59.679Z,14.07
2019-02-18T12:58:29.491Z,13.50
2019-02-18T13:00:59.684Z,19.07
2019-02-18T13:03:30.645Z,14.68
2019-02-18T13:05:59.874Z,13.08
2019-02-18T13:08:30.056Z,13.48
2019-02-18T13:11:00.492Z,16.20
2019-02-18T13:13:31.453Z,12.28
2019-02-18T13:16:01.941Z,17.73
2019-02-18T13:18:32.267Z,17.55
2019-02-18T13:21:02.303Z,15.00
2019-02-18T13:23:32.719Z,17.42
2019-02-18T13:26:02.859Z,17.40
2019-02-18T13:28:33.157Z,15.15
2019-02-18T13:31:02.966Z,15.80
2019-02-18T13:33:33.907Z,16.15
2019-02-18T13:36:04.040Z,19.65
2019-02-18T13:38:36.667Z,15.78
2019-02-18T13:41:06.611Z,17.55
2019-02-18T13:43:37.108Z,18.77
2019-02-18T13:46:06.449Z,17.25
2019-02-18T13:48:36.621Z,13.00
2019-02-18T13:51:06.897Z,14.47
2019-02-18T13:53:36.383Z,15.78
2019-02-18T13:56:06.759Z,15.85
2019-02-18T13:58:36.940Z,16.20
2019-02-18T14:01:08.178Z,18.42
2019-02-18T14:03:37.598Z,14.18
2019-02-18T14:06:21.642Z,13.22
2019-02-18T14:08:51.630Z,15.70
2019-02-18T14:11:36.447Z,14.73
2019-02-18T14:14:06.966Z,16.23
2019-02-18T14:16:36.411Z,16.93
2019-02-18T14:19:07.079Z,15.48
2019-02-18T14:21:36.980Z,14.18
2019-02-18T14:24:15.913Z,16.95
2019-02-18T14:26:46.129Z,15.40
2019-02-18T14:29:15.666Z,15.63
2019-02-18T14:31:46.277Z,13.28
2019-02-18T14:34:15.984Z,14.33
2019-02-18T14:36:46.402Z,14.23
2019-02-18T14:39:27.394Z,14.28
2019-02-18T14:41:57.916Z,16.30
2019-02-18T14:44:28.381Z,20.50
2019-02-18T14:47:06.855Z,13.98
2019-02-18T14:49:40.493Z,15.58
2019-02-18T14:52:10.340Z,14.40
2019-02-18T14:54:39.791Z,18.60
2019-02-18T14:57:08.998Z,15.93
2019-02-18T14:59:39.046Z,16.15
2019-02-18T15:02:54.874Z,18.70
2019-02-18T15:05:25.537Z,17.90
2019-02-18T15:07:55.487Z,25.60
2019-02-18T15:10:26.155Z,23.07
2019-02-18T15:12:56.704Z,23.27
2019-02-18T15:15:26.620Z,26.25
2019-02-18T15:17:56.547Z,32.67
2019-02-18T15:20:26.024Z,24.80
2019-02-18T15:22:56.600Z,25.00
2019-02-18T15:25:26.436Z,17.48
2019-02-18T15:27:56.932Z,41.80
2019-02-18T15:30:26.540Z,46.98
2019-02-18T15:32:57.171Z,28.90
2019-02-18T15:35:27.474Z,45.15
2019-02-18T15:37:57.466Z,122.55
2019-02-18T15:40:26.730Z,105.67
2019-02-18T15:42:57.680Z,58.95
2019-02-18T15:45:27.857Z,42.85
2019-02-18T15:48:01.666Z,36.58
2019-02-18T15:50:29.973Z,78.65
2019-02-18T15:53:00.281Z,47.70
2019-02-18T15:55:30.250Z,34.10
2019-02-18T15:58:00.415Z,24.75
2019-02-18T16:00:30.793Z,21.57
2019-02-18T16:07:19.754Z,15.98
2019-02-18T16:10:07.155Z,16.57
2019-02-18T16:13:02.190Z,17.62
2019-02-18T16:15:48.813Z,14.28
2019-02-18T16:18:19.819Z,22.00
2019-02-18T16:21:30.860Z,14.80
2019-02-18T16:24:01.042Z,18.35
2019-02-18T16:26:31.537Z,15.78
2019-02-18T16:29:02.236Z,18.55
2019-02-18T16:31:53.135Z,14.95
2019-02-18T16:34:23.077Z,16.85
2019-02-18T16:36:52.994Z,15.40
2019-02-18T16:39:23.285Z,13.55
2019-02-18T16:41:53.240Z,13.30
2019-02-18T16:44:22.678Z,14.75
2019-02-18T16:46:53.252Z,12.05
2019-02-18T16:50:01.998Z,15.10
2019-02-18T16:52:32.297Z,13.78
2019-02-18T16:55:02.317Z,13.65
2019-02-18T16:57:32.733Z,19.15
2019-02-18T17:00:26.104Z,21.27
2019-02-18T17:06:50.101Z,17.42
2019-02-18T17:09:20.767Z,17.15
2019-02-18T17:12:37.853Z,12.53
2019-02-18T17:15:08.098Z,15.90
2019-02-18T17:17:46.468Z,14.15
2019-02-18T17:20:16.694Z,12.88
2019-02-18T17:26:32.376Z,13.35
2019-02-18T17:29:04.790Z,9.40
2019-02-18T17:31:44.637Z,12.18
2019-02-18T17:34:33.584Z,9.40
2019-02-18T17:37:31.799Z,8.48
2019-02-18T17:40:32.771Z,13.45
2019-02-18T17:43:27.941Z,10.78
2019-02-18T17:54:08.271Z,20.25
2019-02-18T17:56:42.067Z,11.30
2019-02-18T18:00:47.357Z,8.13
2019-02-18T18:03:01.476Z,7.62
2019-02-18T18:05:49.026Z,9.75
2019-02-18T18:09:46.035Z,10.20
2019-02-18T18:12:26.160Z,11.80
2019-02-18T18:14:58.352Z,8.25
2019-02-18T18:17:28.748Z,10.43
2019-02-18T18:19:59.071Z,10.50
2019-02-18T18:22:28.752Z,9.33
2019-02-18T18:24:59.138Z,12.30
2019-02-18T18:27:29.146Z,11.53
2019-02-18T18:29:59.560Z,12.03
2019-02-18T18:32:29.871Z,12.23
2019-02-18T18:34:59.916Z,11.48
2019-02-18T18:37:29.944Z,13.18
2019-02-18T18:40:00.464Z,12.65
2019-02-18T18:42:31.322Z,10.90
2019-02-18T18:45:01.313Z,15.10
2019-02-18T18:47:31.431Z,12.10
2019-02-18T18:50:01.378Z,9.88
2019-02-18T18:52:31.089Z,8.70
2019-02-18T18:55:01.830Z,10.08
2019-02-18T18:57:31.601Z,9.68
2019-02-18T19:00:02.165Z,11.57
2019-02-18T19:02:32.876Z,9.35
2019-02-18T19:05:03.112Z,10.40
2019-02-18T19:07:32.896Z,11.10
2019-02-18T19:10:03.305Z,11.08
2019-02-18T19:12:33.506Z,11.78
2019-02-18T19:15:03.402Z,10.90
2019-02-18T19:17:33.301Z,11.75
2019-02-18T19:20:03.118Z,11.18
2019-02-18T19:22:33.743Z,10.80
2019-02-18T19:25:03.936Z,11.63
2019-02-18T19:27:33.570Z,14.55
2019-02-18T19:30:04.011Z,15.53
2019-02-18T19:32:34.030Z,11.00
2019-02-18T19:35:05.022Z,12.20
2019-02-18T19:37:34.588Z,13.72
2019-02-18T19:40:04.638Z,14.05
2019-02-18T19:42:34.516Z,13.55
2019-02-18T19:45:04.507Z,15.25
2019-02-18T19:47:34.646Z,15.20
2019-02-18T19:50:05.053Z,16.15
2019-02-18T19:52:35.756Z,13.00
2019-02-18T19:55:05.493Z,15.35
2019-02-18T19:57:36.028Z,13.43
2019-02-18T20:00:05.283Z,15.63
2019-02-18T20:02:35.952Z,17.00
2019-02-18T20:05:06.063Z,15.38
2019-02-18T20:07:36.694Z,13.80
2019-02-18T20:10:07.048Z,14.00
2019-02-18T20:12:37.665Z,15.30
2019-02-18T20:15:08.202Z,15.70
2019-02-18T20:17:38.732Z,13.45
2019-02-18T20:20:09.888Z,13.58
2019-02-18T20:22:39.954Z,15.40
2019-02-18T20:25:09.809Z,15.08
2019-02-18T20:27:40.130Z,15.28
2019-02-18T20:30:10.031Z,16.75
2019-02-18T20:32:40.005Z,17.57
2019-02-18T20:35:11.020Z,17.40
2019-02-18T20:37:41.585Z,17.02
2019-02-18T20:40:11.778Z,15.85
2019-02-18T20:42:42.081Z,18.20
2019-02-18T20:45:12.700Z,16.00
2019-02-18T20:47:42.593Z,33.30
2019-02-18T20:50:16.072Z,46.45
2019-02-18T20:52:46.035Z,62.10
2019-02-18T20:55:16.526Z,44.45
2019-02-18T20:57:46.851Z,18.52
2019-02-18T21:00:44.586Z,16.52
2019-02-18T21:03:14.658Z,48.98
2019-02-18T21:05:44.581Z,33.67
2019-02-18T21:11:37.119Z,19.27
2019-02-18T21:18:34.702Z,29.80
2019-02-18T21:21:04.305Z,24.02
2019-02-18T21:23:34.922Z,20.85
2019-02-18T21:26:05.178Z,18.12
2019-02-18T21:28:35.299Z,24.55
2019-02-18T21:31:05.567Z,24.98
2019-02-18T21:33:36.271Z,19.50
2019-02-18T21:36:06.478Z,14.68
2019-02-18T21:38:36.211Z,21.17
2019-02-18T21:41:06.129Z,21.05
2019-02-18T21:43:38.604Z,20.10
2019-02-18T21:46:08.213Z,22.82
2019-02-18T21:48:37.772Z,18.77
2019-02-18T21:51:08.032Z,18.30
2019-02-18T21:53:38.535Z,18.70
2019-02-18T21:56:08.667Z,23.40
2019-02-18T21:58:38.908Z,20.32
2019-02-18T22:01:16.889Z,19.15
2019-02-18T22:03:47.029Z,20.32
2019-02-18T22:06:17.231Z,18.35
2019-02-18T22:08:46.834Z,22.82
2019-02-18T22:11:16.339Z,23.38
2019-02-18T22:13:46.659Z,18.82
2019-02-18T22:16:16.654Z,22.45
2019-02-18T22:18:47.155Z,23.27
2019-02-18T22:21:17.208Z,21.62
2019-02-18T22:23:47.603Z,25.77
2019-02-18T22:26:17.046Z,25.43
2019-02-18T22:28:46.831Z,29.50
2019-02-18T22:31:17.106Z,30.23
2019-02-18T22:33:47.108Z,31.45
2019-02-18T22:36:17.779Z,29.95
2019-02-18T22:38:47.722Z,36.98
2019-02-18T22:41:17.885Z,33.98
2019-02-18T22:43:47.786Z,32.70
2019-02-18T22:46:17.692Z,31.07
2019-02-18T22:48:47.446Z,32.90
2019-02-18T22:51:17.639Z,37.13
2019-02-18T22:53:47.992Z,23.92
2019-02-18T22:56:17.854Z,26.12
2019-02-18T22:58:47.964Z,26.97
2019-02-18T23:01:18.612Z,24.82
2019-02-18T23:03:48.439Z,23.80
2019-02-18T23:06:18.339Z,24.40
2019-02-18T23:08:48.531Z,23.40
2019-02-18T23:11:18.017Z,19.20
2019-02-18T23:13:48.138Z,22.75
2019-02-18T23:16:17.298Z,22.37
2019-02-18T23:18:47.096Z,21.40
2019-02-18T23:21:17.001Z,22.85
2019-02-18T23:23:47.241Z,20.50
2019-02-18T23:26:16.639Z,15.65
2019-02-18T23:28:46.850Z,13.95
2019-02-18T23:31:16.979Z,15.50
2019-02-18T23:33:46.887Z,15.65
2019-02-18T23:36:17.151Z,13.58
2019-02-18T23:38:47.460Z,14.68
2019-02-18T23:41:17.260Z,13.90
2019-02-18T23:43:47.731Z,9.75
2019-02-18T23:46:18.059Z,13.48
2019-02-18T23:48:47.587Z,11.78
2019-02-18T23:51:17.762Z,12.23
2019-02-18T23:53:47.660Z,12.58
2019-02-18T23:56:17.842Z,12.47
2019-02-18T23:58:47.776Z,10.10
